EW4218 Weather Reports


Display with metric or nautical units.
time (UTC)temp
F
wind
direction
speed
MPH
gust
MPH
rain 1hr
in
rain 24hr
in
rain mn
in
humidity
%
barometer
mb
20201130204133 72 360 18.0 31.0 0.00 0.54 0.53 63 997.2
20201130203237 72 360 19.0 33.0 0.00 0.54 0.53 70 997.3
20201130202333 72 360 17.0 24.0 0.00 0.54 0.53 78 997.2
20201130201441 72 360 19.0 30.0 0.00 0.54 0.53 81 997.2
20201130200533 72 186 16.0 32.0 0.00 0.54 0.53 82 997.2
20201130195634 71 184 14.0 26.0 0.00 0.54 0.53 82 997.1
20201130194733 71 178 14.0 25.0 0.00 0.54 0.53 82 997.4
20201130193835 71 360 15.0 28.0 0.00 0.54 0.53 82 997.4
20201130192938 71 1 12.0 25.0 0.00 0.54 0.53 84 997.5
20201130192035 71 39 12.0 25.0 0.00 0.54 0.53 85 997.6
20201130191133 71 167 13.0 22.0 0.00 0.54 0.53 85 997.8
20201130190237 71 5 15.0 22.0 0.00 0.54 0.53 84 997.8
20201130185334 71 360 16.0 26.0 0.00 0.54 0.53 84 997.7
20201130184433 70 9 17.0 27.0 0.01 0.54 0.53 84 998.0
20201130183534 71 1 14.0 23.0 0.01 0.54 0.53 81 998.1
20201130182637 71 360 16.0 31.0 0.01 0.54 0.53 80 998.4
20201130181733 72 360 17.0 28.0 0.01 0.54 0.53 78 998.4
20201130180841 71 360 15.0 26.0 0.01 0.54 0.53 77 998.6
20201130175935 72 360 18.0 38.0 0.01 0.54 0.53 74 998.9
20201130175040 72 172 18.0 38.0 0.01 0.54 0.53 75 998.7
20201130174133 73 185 18.0 30.0 0.00 0.53 0.52 83 999.2
20201130173234 72 197 19.0 28.0 0.00 0.53 0.52 84 999.1
20201130172333 72 326 18.0 25.0 0.00 0.53 0.52 84 999.1
20201130171434 72 168 14.0 29.0 0.00 0.53 0.52 84 998.4
20201130170534 72 186 12.0 21.0 0.00 0.53 0.52 84 998.6
20201130165637 72 170 9.0 19.0 0.00 0.53 0.52 84 999.0
20201130164733 72 165 9.0 16.0 0.00 0.53 0.52 85 999.2
20201130163833 72 169 8.0 16.0 0.00 0.53 0.52 85 999.9
20201130162937 72 166 9.0 16.0 0.00 0.53 0.52 86 1000.2
20201130162034 72 169 8.0 14.0 0.00 0.53 0.52 87 1000.5
20201130161134 72 171 8.0 15.0 0.00 0.53 0.52 87 1000.8
20201130160235 72 3 9.0 18.0 0.00 0.53 0.52 86 1001.1
20201130155333 72 171 10.0 18.0 0.00 0.53 0.52 86 1001.3
20201130154433 71 172 9.0 16.0 0.00 0.53 0.52 86 1001.4
20201130153534 71 170 9.0 15.0 0.00 0.53 0.52 87 1001.3
20201130152635 71 169 9.0 15.0 0.00 0.53 0.52 87 1001.9
20201130151733 71 176 9.0 15.0 0.00 0.53 0.52 87 1002.0
20201130150838 71 173 9.0 15.0 0.00 0.53 0.52 87 1002.4
20201130145936 71 170 10.0 16.0 0.00 0.53 0.52 88 1002.4
20201130145035 71 170 10.0 16.0 0.01 0.53 0.52 87 1002.4
20201130144134 71 360 10.0 16.0 0.01 0.53 0.52 88 1002.5
20201130143234 70 360 9.0 18.0 0.01 0.53 0.52 89 1002.7
20201130142335 70 360 10.0 19.0 0.01 0.53 0.52 89 1002.5
20201130141433 70 360 10.0 20.0 0.01 0.53 0.52 91 1002.6
20201130140533 70 176 9.0 16.0 0.01 0.53 0.52 92 1002.8
20201130135635 69 175 7.0 16.0 0.01 0.53 0.52 93 1003.0
20201130134734 69 176 6.0 11.0 0.00 0.52 0.51 94 1003.0
20201130133834 68 168 5.0 10.0 0.00 0.52 0.51 94 1002.7
20201130132933 69 161 8.0 15.0 0.00 0.52 0.51 94 1003.0
20201130132035 68 158 9.0 14.0 0.00 0.52 0.51 94 1003.3
20201130131133 68 160 7.0 11.0 0.00 0.52 0.51 94 1003.4
20201130130237 68 155 10.0 15.0 0.00 0.52 0.51 95 1003.5
20201130125335 68 152 10.0 15.0 0.00 0.52 0.51 94 1003.5
20201130124435 68 152 10.0 14.0 0.00 0.52 0.51 94 1003.8
20201130123534 68 154 10.0 15.0 0.00 0.52 0.51 94 1003.7
20201130122633 68 148 11.0 16.0 0.00 0.52 0.51 94 1003.5
20201130121733 67 136 11.0 15.0 0.00 0.52 0.51 94 1003.1
20201130120836 67 149 10.0 16.0 0.00 0.52 0.51 93 1003.9
20201130115934 67 155 9.0 13.0 0.00 0.52 0.51 93 1004.1
20201130115034 67 156 8.0 13.0 0.00 0.52 0.51 93 1004.1
20201130114136 67 154 9.0 13.0 0.00 0.52 0.51 94 1004.0
20201130113233 67 163 7.0 12.0 0.00 0.52 0.51 93 1004.1
20201130112335 68 169 9.0 16.0 0.00 0.52 0.51 93 1004.3
20201130111433 68 162 10.0 15.0 0.00 0.52 0.51 94 1004.6
20201130110534 68 157 9.0 15.0 0.01 0.52 0.51 94 1004.8
20201130105633 67 162 7.0 15.0 0.01 0.52 0.51 94 1004.9
20201130104733 67 169 6.0 15.0 0.01 0.52 0.51 94 1005.1
20201130103834 67 171 6.0 9.0 0.01 0.52 0.51 94 1005.0
20201130102935 67 168 5.0 10.0 0.01 0.52 0.51 94 1005.1
20201130102035 66 165 5.0 11.0 0.01 0.52 0.51 94 1005.0
20201130101133 66 170 5.0 8.0 0.00 0.51 0.50 94 1005.1
20201130100238 66 171 5.0 10.0 0.06 0.51 0.50 94 1005.1
20201130095334 66 170 6.0 12.0 0.14 0.51 0.50 94 1005.3
20201130094435 66 168 0.0 10.0 0.19 0.51 0.50 95 1005.5
20201130092629 66 360 11.0 20.0 0.29 0.51 0.50 96 1006.0
20201130091730 65 360 11.0 17.0 0.31 0.50 0.49 96 1006.4
20201130090830 65 360 14.0 21.0 0.27 0.43 0.42 96 1006.1
20201130085930 64 360 13.0 20.0 0.21 0.37 0.36 96 1006.0
20201130085029 64 360 15.0 22.0 0.17 0.32 0.31 96 1006.3
20201130084129 64 360 16.0 23.0 0.15 0.30 0.29 96 1005.9
20201130083231 64 360 13.0 21.0 0.12 0.26 0.25 96 1007.1
20201130082330 63 360 12.0 17.0 0.08 0.21 0.21 96 1007.5
20201130081431 63 360 15.0 18.0 0.06 0.17 0.16 96 1007.5
20201130080531 63 360 15.0 24.0 0.07 0.16 0.15 95 1007.6
20201130075630 63 360 14.0 18.0 0.09 0.16 0.15 95 1007.9
20201130074729 63 360 14.0 22.0 0.09 0.15 0.14 95 1008.4
20201130073829 63 360 18.0 24.0 0.11 0.15 0.14 95 1008.4
20201130072930 63 360 16.0 20.0 0.11 0.14 0.13 94 1009.0
20201130072029 63 360 18.0 25.0 0.09 0.12 0.11 94 1009.3
20201130071129 63 360 19.0 26.0 0.07 0.10 0.09 93 1009.6
20201130070232 63 360 17.0 25.0 0.06 0.10 0.08 93 1009.6
20201130065331 64 360 17.0 24.0 0.04 0.08 0.06 92 1010.3
20201130064429 64 360 16.0 23.0 0.03 0.06 0.04 91 1010.5
20201130063531 65 360 15.0 22.0 0.02 0.05 0.03 89 1010.6
20201130062629 65 360 15.0 20.0 0.01 0.04 0.02 89 1010.6
20201130061729 64 360 12.0 16.0 0.02 0.04 0.02 90 1010.6
20201130060832 64 360 11.0 16.0 0.02 0.04 0.02 89 1011.0
20201130055930 64 360 11.0 15.0 0.02 0.04 0.02 90 1011.0
20201130055029 63 360 13.0 16.0 0.02 0.03 0.02 89 1011.0
20201130054129 63 360 12.0 15.0 0.02 0.03 0.01 89 1011.1
20201130053233 63 360 10.0 13.0 0.02 0.03 0.01 89 1011.6
20201130052329 63 360 9.0 11.0 0.02 0.03 0.01 88 1012.0
20201130051429 64 360 10.0 14.0 0.01 0.02 0.00 85 1012.4
20201130050529 65 360 10.0 13.0 0.01 0.02 0.00 85 1012.8
20201130045636 65 360 9.0 13.0 0.01 0.02 0.02 84 1013.2
20201130044731 65 360 9.0 13.0 0.00 0.01 0.01 85 1013.7
20201130043829 64 360 9.0 12.0 0.00 0.01 0.01 86 1013.9
20201130042930 64 360 10.0 13.0 0.00 0.01 0.01 85 1014.0
20201130042029 64 360 10.0 13.0 0.00 0.01 0.01 85 1014.0
20201130041130 65 360 10.0 14.0 0.00 0.01 0.01 83 1014.3
20201130040229 65 360 10.0 15.0 0.00 0.01 0.01 83 1014.6
20201130035330 64 360 10.0 14.0 0.00 0.01 0.01 86 1014.9
20201130034429 64 360 10.0 13.0 0.00 0.01 0.01 86 1015.1
20201130033530 64 360 10.0 12.0 0.00 0.01 0.01 87 1015.0
20201130032632 64 360 9.0 11.0 0.00 0.01 0.01 87 1015.2
20201130031729 63 360 7.0 8.0 0.00 0.01 0.01 88 1015.3
20201130030832 62 360 6.0 7.0 0.00 0.01 0.01 89 1015.5
20201130025931 62 360 6.0 7.0 0.00 0.01 0.01 89 1015.6
20201130025029 62 360 5.0 6.0 0.00 0.01 0.01 90 1015.9
20201130024131 61 360 5.0 6.0 0.00 0.01 0.01 90 1016.0
20201130023230 61 360 5.0 7.0 0.00 0.01 0.01 91 1016.1
20201130022330 60 360 5.0 7.0 0.00 0.01 0.01 91 1016.3
20201130021429 60 360 5.0 8.0 0.00 0.01 0.01 90 1016.4
20201130020531 60 360 7.0 9.0 0.00 0.01 0.01 89 1016.5
20201130015630 60 360 7.0 9.0 0.00 0.01 0.01 89 1016.6
20201130014729 60 360 6.0 9.0 0.00 0.01 0.01 88 1016.6
20201130013844 60 360 7.0 10.0 0.00 0.01 0.01 88 1016.7
20201130012929 60 360 7.0 10.0 0.00 0.01 0.01 88 1016.9
20201130012031 60 360 7.0 10.0 0.00 0.01 0.01 87 1017.1
20201130011133 60 360 7.0 10.0 0.00 0.01 0.01 86 1017.2
20201130010230 59 360 5.0 7.0 0.00 0.01 0.01 85 1017.4
20201130005334 59 360 4.0 7.0 0.00 0.01 0.01 85 1017.4
20201130004429 59 360 4.0 9.0 0.00 0.01 0.01 84 1017.5
20201130003530 59 360 4.0 7.0 0.00 0.01 0.01 83 1017.6
20201130002631 59 360 4.0 7.0 0.00 0.01 0.01 83 1017.6
20201130001729 59 360 5.0 9.0 0.00 0.01 0.01 82 1017.6
20201130000830 59 360 5.0 11.0 0.00 0.01 0.01 82 1017.7
20201129235929 59 360 4.0 8.0 0.00 0.01 0.01 81 1017.7
20201129235031 60 360 4.0 7.0 0.00 0.01 0.01 81 1017.8
20201129234129 60 360 4.0 7.0 0.00 0.01 0.01 81 1017.9
20201129233231 60 360 3.0 7.0 0.00 0.01 0.01 81 1018.0
20201129232329 60 360 3.0 7.0 0.00 0.01 0.01 82 1018.0
20201129231429 60 360 4.0 6.0 0.00 0.01 0.01 82 1018.1
20201129230529 60 360 4.0 7.0 0.00 0.01 0.01 82 1018.2
20201129225631 60 360 4.0 7.0 0.00 0.01 0.01 82 1018.4
20201129224732 60 360 3.0 7.0 0.00 0.01 0.01 81 1018.4
20201129223831 60 360 3.0 6.0 0.00 0.01 0.01 80 1018.6
20201129222929 60 11 3.0 6.0 0.00 0.01 0.01 79 1018.7
20201129222029 60 1 3.0 7.0 0.00 0.01 0.01 78 1018.7
20201129221129 60 360 3.0 7.0 0.00 0.01 0.01 78 1018.7
20201129220229 60 360 2.0 6.0 0.00 0.01 0.01 77 1018.9
20201129215329 60 360 3.0 6.0 0.00 0.01 0.01 77 1019.0
20201129214432 61 360 2.0 6.0 0.00 0.01 0.01 77 1018.9
20201129213529 61 360 2.0 5.0 0.00 0.01 0.01 76 1018.9
20201129212629 62 360 3.0 6.0 0.00 0.01 0.01 75 1019.0
20201129211732 62 5 4.0 6.0 0.00 0.01 0.01 75 1019.1
20201129210829 63 11 4.0 8.0 0.00 0.01 0.01 74 1019.1
20201129205931 63 13 4.0 7.0 0.00 0.01 0.01 73 1019.0
20201129205030 63 48 4.0 7.0 0.00 0.01 0.01 72 1019.1